Time;durP1;ratioP1;P1;durP2;ratioP2;P2;SDS_P1;SDS_P2;PMS_P1;PMS_P2;Temp;Humidity;BMP_temperature;BMP_pressure;BME280_temperature;BME280_humidity;BME280_pressure;Samples;Min_cycle;Max_cycle;Signal;HPM_P1;HPM_P2
2022/08/29 00:01:12;;;;;;;22.90;19.90;;;;;;;18.45;100.00;98914.41;105095;1270;61297;-70
2022/08/29 00:03:39;;;;;;;26.20;20.40;;;;;;;18.45;100.00;98913.56;105071;1270;61311;-70
2022/08/29 00:06:06;;;;;;;27.10;21.50;;;;;;;18.44;100.00;98912.19;105181;1270;61377;-71
2022/08/29 00:08:32;;;;;;;29.20;21.70;;;;;;;18.45;100.00;98915.48;104940;1271;61383;-69
2022/08/29 00:10:59;;;;;;;24.40;21.80;;;;;;;18.46;100.00;98911.15;105066;1270;61384;-70
2022/08/29 00:13:26;;;;;;;24.50;21.10;;;;;;;18.45;100.00;98913.16;105090;1270;61391;-70
2022/08/29 00:15:52;;;;;;;26.70;22.40;;;;;;;18.43;100.00;98912.08;105090;1270;61246;-70
2022/08/29 00:18:19;;;;;;;27.20;22.70;;;;;;;18.43;100.00;98912.47;105065;1270;61291;-72
2022/08/29 00:20:46;;;;;;;30.90;23.90;;;;;;;18.43;100.00;98913.13;105123;1270;61288;-70
2022/08/29 00:23:12;;;;;;;27.00;21.90;;;;;;;18.44;100.00;98915.80;105122;1270;61807;-72
2022/08/29 00:25:39;;;;;;;25.50;22.10;;;;;;;18.44;100.00;98913.98;105102;1270;61253;-70
2022/08/29 00:28:05;;;;;;;27.00;22.50;;;;;;;18.43;100.00;98913.52;105052;1270;61222;-71
2022/08/29 00:30:31;;;;;;;26.80;22.60;;;;;;;18.43;100.00;98911.90;104918;1270;61268;-71
2022/08/29 00:32:58;;;;;;;27.40;23.20;;;;;;;18.43;100.00;98911.42;105146;1270;61456;-72
2022/08/29 00:35:28;;;;;;;26.10;23.30;;;;;;;18.43;100.00;98910.09;105077;1270;61391;-70
2022/08/29 00:37:54;;;;;;;24.40;21.70;;;;;;;18.45;100.00;98910.16;105079;1270;74315;-71
2022/08/29 00:40:31;;;;;;;25.40;22.70;;;;;;;18.44;100.00;98907.50;105076;1270;61416;-71
2022/08/29 00:42:58;;;;;;;26.30;23.20;;;;;;;18.44;100.00;98905.02;105084;1270;61860;-72
2022/08/29 00:45:24;;;;;;;27.60;21.70;;;;;;;18.43;100.00;98905.11;105105;1270;76444;-73
2022/08/29 00:47:57;;;;;;;24.40;21.70;;;;;;;18.43;100.00;98908.10;105104;1270;70637;-70
2022/08/29 00:50:30;;;;;;;24.20;21.70;;;;;;;18.43;100.00;98904.35;105017;1269;74706;-71
2022/08/29 00:53:00;;;;;;;25.90;22.10;;;;;;;18.43;100.00;98905.97;105074;1270;61397;-71
2022/08/29 00:55:30;;;;;;;24.60;22.00;;;;;;;18.43;100.00;98909.04;105075;1270;61993;-71
2022/08/29 00:58:01;;;;;;;26.60;22.10;;;;;;;18.43;100.00;98913.50;105053;1270;74705;-71
2022/08/29 01:00:28;;;;;;;24.30;21.90;;;;;;;18.43;100.00;98911.73;105022;1270;70459;-71
2022/08/29 01:02:54;;;;;;;26.50;22.20;;;;;;;18.42;100.00;98912.02;105041;1270;74370;-69
2022/08/29 01:05:21;;;;;;;26.50;22.70;;;;;;;18.41;100.00;98910.55;104971;1270;61443;-71
2022/08/29 01:07:49;;;;;;;24.70;22.10;;;;;;;18.40;100.00;98907.05;105111;1270;61348;-71
2022/08/29 01:12:14;;;;;;;28.70;23.10;;;;;;;18.39;100.00;98911.43;105055;1270;74401;-69
2022/08/29 01:13:04;;;;;;;24.00;21.50;;;;;;;18.38;100.00;98909.06;105032;1270;70548;-71
2022/08/29 01:15:32;;;;;;;24.60;22.10;;;;;;;18.35;100.00;98910.77;105000;1270;73502;-70
2022/08/29 01:18:01;;;;;;;25.80;23.10;;;;;;;18.34;100.00;98912.09;105072;1270;61288;-70
2022/08/29 01:20:45;;;;;;;26.20;23.50;;;;;;;18.34;100.00;98913.91;105067;1270;62112;-70
2022/08/29 01:23:19;;;;;;;25.30;22.60;;;;;;;18.33;100.00;98919.71;105026;1270;75309;-70
2022/08/29 01:25:49;;;;;;;24.70;22.30;;;;;;;18.33;100.00;98914.52;105054;1270;70520;-71
2022/08/29 01:28:20;;;;;;;25.10;22.10;;;;;;;18.33;100.00;98911.35;104995;1270;73961;-70
2022/08/29 01:31:03;;;;;;;24.80;22.20;;;;;;;18.32;100.00;98918.77;105077;1270;61443;-71
2022/08/29 01:33:55;;;;;;;25.50;22.90;;;;;;;18.32;100.00;98920.77;105071;1270;61896;-71
2022/08/29 01:36:38;;;;;;;25.80;22.60;;;;;;;18.30;100.00;98918.81;104509;1278;74904;-71
2022/08/29 01:39:05;;;;;;;24.80;22.20;;;;;;;18.29;100.00;98921.92;104384;1278;67703;-72
2022/08/29 01:41:32;;;;;;;28.90;23.60;;;;;;;18.28;100.00;98924.21;104563;1277;73222;-71
2022/08/29 01:43:58;;;;;;;25.80;22.00;;;;;;;18.27;100.00;98926.55;104448;1278;61492;-71
2022/08/29 01:46:33;;;;;;;25.10;22.70;;;;;;;18.26;100.00;98929.85;104374;1279;61354;-71
2022/08/29 01:49:04;;;;;;;30.70;27.60;;;;;;;18.26;100.00;98933.43;104189;1278;76435;-71
2022/08/29 01:51:30;;;;;;;34.10;30.30;;;;;;;18.26;100.00;98930.60;104375;1277;70247;-70
2022/08/29 01:53:57;;;;;;;43.80;37.10;;;;;;;18.25;100.00;98931.37;104520;1277;73503;-70
2022/08/29 01:56:27;;;;;;;38.90;34.80;;;;;;;18.24;100.00;98929.70;104493;1277;61348;-71
2022/08/29 01:58:56;;;;;;;42.40;37.90;;;;;;;18.24;100.00;98932.96;104443;1278;62126;-71
2022/08/29 02:01:26;;;;;;;40.60;34.80;;;;;;;18.23;100.00;98932.15;104475;1277;75391;-70
2022/08/29 02:03:52;;;;;;;38.60;33.90;;;;;;;18.20;100.00;98933.07;104491;1277;69575;-71
2022/08/29 02:06:19;;;;;;;39.20;31.90;;;;;;;18.18;100.00;98937.61;104446;1277;61410;-70
2022/08/29 02:08:46;;;;;;;35.50;31.00;;;;;;;18.18;100.00;98937.83;104519;1278;61469;-70
2022/08/29 02:11:16;;;;;;;33.80;29.90;;;;;;;18.17;100.00;98936.12;104507;1277;61586;-70
2022/08/29 02:13:44;;;;;;;;;;;;;;;18.16;100.00;98937.11;104748;1273;76346;-70
2022/08/29 02:16:12;;;;;;;25.80;23.10;;;;;;;18.14;100.00;98937.54;105186;1270;70262;-70
2022/08/29 02:18:39;;;;;;;28.60;25.50;;;;;;;18.12;100.00;98939.48;104851;1270;74798;-70
2022/08/29 02:21:06;;;;;;;28.50;24.90;;;;;;;18.12;100.00;98941.50;104845;1271;61352;-72
2022/08/29 02:23:34;;;;;;;29.60;26.50;;;;;;;18.11;100.00;98941.25;105053;1270;61142;-71
2022/08/29 02:26:00;;;;;;;32.10;28.80;;;;;;;18.08;100.00;98944.42;105012;1270;76353;-70
2022/08/29 02:28:26;;;;;;;26.80;24.00;;;;;;;18.07;100.00;98950.05;105031;1270;61445;-70
2022/08/29 02:30:53;;;;;;;26.60;23.80;;;;;;;18.06;100.00;98954.15;105023;1270;61368;-70
2022/08/29 02:33:20;;;;;;;27.60;24.60;;;;;;;18.05;100.00;98957.14;105039;1270;61298;-69
2022/08/29 02:35:47;;;;;;;26.90;24.30;;;;;;;18.04;100.00;98955.98;105050;1270;61279;-70
2022/08/29 02:38:14;;;;;;;22.70;20.30;;;;;;;18.02;100.00;98955.29;105066;1270;75196;-72
2022/08/29 02:40:42;;;;;;;26.00;23.30;;;;;;;17.98;100.00;98952.90;105008;1271;70746;-71
2022/08/29 02:43:08;;;;;;;27.10;24.10;;;;;;;17.97;100.00;98953.38;105150;1270;74554;-70
2022/08/29 02:45:37;;;;;;;31.60;25.80;;;;;;;17.94;100.00;98956.85;104967;1270;61768;-70
2022/08/29 02:48:03;;;;;;;28.30;25.20;;;;;;;17.94;100.00;98955.66;105018;1270;61776;-70
2022/08/29 02:50:29;;;;;;;31.00;27.20;;;;;;;17.92;100.00;98962.44;104935;1270;61288;-70
2022/08/29 02:52:56;;;;;;;24.80;20.60;;;;;;;17.90;100.00;98961.08;104915;1270;61378;-68
2022/08/29 02:55:23;;;;;;;31.30;26.20;;;;;;;17.89;100.00;98958.84;104940;1270;61268;-71
2022/08/29 02:57:51;;;;;;;31.20;26.80;;;;;;;17.87;100.00;98954.71;105049;1270;61404;-71
2022/08/29 03:00:24;;;;;;;31.00;27.50;;;;;;;17.86;100.00;98956.11;105537;1271;62371;-71
2022/08/29 03:02:50;;;;;;;30.50;26.20;;;;;;;17.84;100.00;98953.09;104999;1270;76208;-70
2022/08/29 03:05:20;;;;;;;27.60;23.80;;;;;;;17.83;100.00;98953.89;105014;1270;69326;-70
2022/08/29 03:07:47;;;;;;;27.40;23.00;;;;;;;17.82;100.00;98956.46;105050;1269;73537;-71
2022/08/29 03:10:13;;;;;;;22.30;19.60;;;;;;;17.81;100.00;98956.73;105045;1270;61389;-71
2022/08/29 03:12:39;;;;;;;21.50;19.00;;;;;;;17.81;100.00;98957.60;104876;1270;61320;-70
2022/08/29 03:15:07;;;;;;;22.60;20.20;;;;;;;17.80;100.00;98956.29;105032;1270;61288;-71
2022/08/29 03:17:34;;;;;;;22.20;18.10;;;;;;;17.80;100.00;98959.52;105168;1269;70181;-70
2022/08/29 03:20:00;;;;;;;23.20;18.90;;;;;;;17.80;100.00;98960.98;105061;1270;61296;-71
2022/08/29 03:22:27;;;;;;;18.90;17.00;;;;;;;17.80;100.00;98962.07;105010;1270;61792;-70
2022/08/29 03:24:53;;;;;;;21.20;18.60;;;;;;;17.79;100.00;98960.52;104953;1271;61561;-69
2022/08/29 03:27:21;;;;;;;21.10;18.80;;;;;;;17.77;100.00;98964.61;105013;1270;61286;-70
2022/08/29 03:29:48;;;;;;;22.20;20.00;;;;;;;17.77;100.00;98965.17;105070;1270;68546;-70
2022/08/29 03:32:14;;;;;;;24.20;21.10;;;;;;;17.75;100.00;98964.61;105047;1270;61382;-71
2022/08/29 03:34:40;;;;;;;26.30;20.70;;;;;;;17.75;100.00;98964.48;105043;1270;61276;-71
2022/08/29 03:37:06;;;;;;;22.90;20.30;;;;;;;17.74;100.00;98963.55;105057;1270;61267;-70
2022/08/29 03:39:35;;;;;;;26.20;20.40;;;;;;;17.72;100.00;98966.70;104997;1270;61441;-70
2022/08/29 03:42:01;;;;;;;23.90;20.30;;;;;;;17.71;100.00;98969.00;105109;1270;69496;-71
2022/08/29 03:44:30;;;;;;;23.80;20.30;;;;;;;17.71;100.00;98969.20;104868;1270;61465;-70
2022/08/29 03:46:56;;;;;;;21.70;19.30;;;;;;;17.70;100.00;98973.45;105050;1270;61393;-71
2022/08/29 03:49:22;;;;;;;22.80;20.20;;;;;;;17.70;100.00;98976.34;105057;1270;61279;-71
2022/08/29 03:51:49;;;;;;;20.60;18.30;;;;;;;17.69;100.00;98978.94;105022;1270;61413;-71
2022/08/29 03:54:15;;;;;;;20.50;18.40;;;;;;;17.67;100.00;98983.91;105069;1270;61351;-71
2022/08/29 03:56:41;;;;;;;19.20;17.20;;;;;;;17.65;100.00;98983.58;105044;1270;61379;-70
2022/08/29 03:59:07;;;;;;;20.60;17.40;;;;;;;17.64;100.00;98986.75;105035;1270;61257;-71
2022/08/29 04:01:33;;;;;;;18.80;15.50;;;;;;;17.63;100.00;98992.92;105147;1270;61402;-70
2022/08/29 04:03:59;;;;;;;18.60;15.50;;;;;;;17.62;100.00;98995.73;105042;1270;61298;-71
2022/08/29 04:06:27;;;;;;;16.30;14.50;;;;;;;17.61;100.00;98997.81;104954;1271;61270;-71
2022/08/29 04:08:54;;;;;;;18.00;13.40;;;;;;;17.59;100.00;99000.89;105029;1270;61596;-71
2022/08/29 04:11:22;;;;;;;16.10;13.30;;;;;;;17.57;100.00;99004.15;105054;1270;61358;-71
2022/08/29 04:13:51;;;;;;;14.60;13.20;;;;;;;17.56;100.00;99010.31;104982;1270;61235;-70
2022/08/29 04:16:24;;;;;;;14.10;12.60;;;;;;;17.54;100.00;99005.48;105060;1270;76143;-71
2022/08/29 04:18:50;;;;;;;15.00;12.70;;;;;;;17.53;100.00;99008.41;105126;1270;70311;-71
2022/08/29 04:21:17;;;;;;;12.70;11.30;;;;;;;17.53;100.00;99017.98;105043;1270;61379;-72
2022/08/29 04:23:47;;;;;;;14.30;11.60;;;;;;;17.51;100.00;99020.70;105025;1270;61291;-72
2022/08/29 04:26:14;;;;;;;18.10;12.70;;;;;;;17.48;100.00;99021.15;105064;1270;61291;-72
2022/08/29 04:28:41;;;;;;;15.20;12.00;;;;;;;17.47;100.00;99023.55;105129;1270;75379;-70
2022/08/29 04:31:20;;;;;;;11.70;10.60;;;;;;;17.45;100.00;99027.87;105039;1270;69247;-72
2022/08/29 04:33:48;;;;;;;16.20;11.30;;;;;;;17.43;100.00;99032.04;104883;1270;74482;-71
2022/08/29 04:36:15;;;;;;;12.40;10.80;;;;;;;17.42;100.00;99039.19;105038;1270;61300;-70
2022/08/29 04:38:41;;;;;;;17.00;11.40;;;;;;;17.42;100.00;99042.02;104864;1270;61298;-70
2022/08/29 04:41:09;;;;;;;14.10;11.40;;;;;;;17.44;100.00;99050.27;105037;1270;61273;-70
2022/08/29 04:43:35;;;;;;;12.60;11.10;;;;;;;17.46;100.00;99056.17;105047;1270;69347;-71
2022/08/29 04:46:01;;;;;;;15.60;13.40;;;;;;;17.48;100.00;99055.70;105082;1270;61288;-70
2022/08/29 04:48:28;;;;;;;15.50;12.20;;;;;;;17.51;100.00;99060.96;104908;1270;61502;-71
2022/08/29 04:50:57;;;;;;;15.50;13.10;;;;;;;17.54;100.00;99059.58;105157;1269;61374;-71
2022/08/29 04:53:24;;;;;;;16.50;13.20;;;;;;;17.58;100.00;99059.55;105066;1270;76813;-70
2022/08/29 04:55:58;;;;;;;18.50;14.00;;;;;;;17.62;100.00;99060.78;105068;1270;69436;-71
2022/08/29 04:58:25;;;;;;;15.30;13.20;;;;;;;17.64;100.00;99063.52;105136;1270;74522;-69
2022/08/29 05:00:52;;;;;;;21.10;13.80;;;;;;;17.65;100.00;99062.17;105072;1270;61334;-70
2022/08/29 05:03:19;;;;;;;18.30;13.60;;;;;;;17.64;100.00;99065.41;105089;1270;61314;-71
2022/08/29 05:05:57;;;;;;;15.80;13.70;;;;;;;17.67;100.00;99068.57;104894;1271;74930;-72
2022/08/29 05:08:24;;;;;;;18.20;13.50;;;;;;;17.71;100.00;99073.89;105096;1270;69374;-71
2022/08/29 05:10:51;;;;;;;14.20;12.70;;;;;;;17.77;100.00;99083.39;105107;1270;71580;-72
2022/08/29 05:13:18;;;;;;;15.60;13.40;;;;;;;17.83;100.00;99083.11;105081;1270;61377;-71
2022/08/29 05:15:44;;;;;;;15.00;13.40;;;;;;;17.87;100.00;99086.32;105056;1270;61248;-70
2022/08/29 05:18:14;;;;;;;15.00;13.50;;;;;;;17.91;100.00;99087.89;105082;1270;61279;-70
2022/08/29 05:20:41;;;;;;;;;;;;;;;17.95;100.00;99085.48;105149;1270;69539;-72
2022/08/29 05:23:07;;;;;;;14.50;13.10;;;;;;;18.00;100.00;99091.31;105185;1270;74874;-71
2022/08/29 05:25:33;;;;;;;18.50;14.00;;;;;;;18.06;100.00;99091.32;105144;1270;61338;-70
2022/08/29 05:28:00;;;;;;;14.00;11.80;;;;;;;18.13;100.00;99092.80;105069;1270;61473;-70
2022/08/29 05:30:27;;;;;;;12.90;11.70;;;;;;;18.20;100.00;99094.41;105088;1270;61352;-71
2022/08/29 05:32:55;;;;;;;14.70;12.30;;;;;;;18.28;100.00;99097.30;105069;1270;61328;-70
2022/08/29 05:35:23;;;;;;;15.30;13.80;;;;;;;18.26;100.00;99100.02;105063;1270;73389;-70
2022/08/29 05:37:49;;;;;;;14.80;13.20;;;;;;;18.26;100.00;99103.39;104985;1270;61371;-71
2022/08/29 05:40:15;;;;;;;15.00;13.60;;;;;;;18.28;100.00;99106.48;105025;1270;61265;-71
2022/08/29 05:42:42;;;;;;;15.20;12.40;;;;;;;18.29;100.00;99110.50;105059;1270;61348;-70
2022/08/29 05:45:10;;;;;;;15.90;13.60;;;;;;;18.29;100.00;99112.30;105073;1270;61262;-71
2022/08/29 05:47:36;;;;;;;17.70;14.00;;;;;;;18.29;100.00;99111.20;105090;1270;72262;-71
2022/08/29 05:50:07;;;;;;;15.20;13.60;;;;;;;18.30;100.00;99112.17;105041;1269;61442;-70
2022/08/29 05:52:33;;;;;;;17.10;13.10;;;;;;;18.33;100.00;99114.76;104876;1271;62019;-69
2022/08/29 05:55:00;;;;;;;15.50;12.60;;;;;;;18.35;100.00;99111.19;105068;1270;61471;-70
2022/08/29 05:57:28;;;;;;;15.00;13.60;;;;;;;18.33;100.00;99115.52;105078;1270;69287;-72
2022/08/29 05:59:54;;;;;;;15.60;14.00;;;;;;;18.29;100.00;99114.92;105077;1270;61251;-72
2022/08/29 06:02:21;;;;;;;16.10;13.40;;;;;;;18.27;100.00;99120.52;104884;1271;61393;-71
2022/08/29 06:04:48;;;;;;;17.80;15.00;;;;;;;18.31;100.00;99124.30;105027;1270;61444;-72
2022/08/29 06:07:14;;;;;;;15.80;14.20;;;;;;;18.34;100.00;99124.23;105053;1270;61275;-71
2022/08/29 06:09:42;;;;;;;17.20;14.10;;;;;;;18.36;100.00;99127.94;105141;1270;61334;-71
2022/08/29 06:12:12;;;;;;;16.80;13.50;;;;;;;18.41;100.00;99131.42;105062;1270;73271;-71
2022/08/29 06:14:39;;;;;;;15.10;13.60;;;;;;;18.47;100.00;99130.33;105135;1270;61297;-70
2022/08/29 06:17:08;;;;;;;13.90;12.50;;;;;;;18.56;100.00;99135.70;105059;1270;61314;-72
2022/08/29 06:19:38;;;;;;;14.20;12.90;;;;;;;18.66;100.00;99133.16;105075;1270;75305;-71
2022/08/29 06:22:07;;;;;;;12.90;11.60;;;;;;;18.74;100.00;99137.79;103518;1271;2149898;-70
2022/08/29 06:24:33;;;;;;;12.00;10.90;;;;;;;18.85;100.00;99143.67;105138;1270;74332;-72
2022/08/29 06:27:00;;;;;;;15.30;10.70;;;;;;;18.95;100.00;99146.00;105036;1270;62932;-70
2022/08/29 06:29:27;;;;;;;12.60;11.30;;;;;;;19.08;100.00;99148.56;105133;1270;61350;-68
2022/08/29 06:31:55;;;;;;;12.50;10.70;;;;;;;19.32;100.00;99148.96;104980;1271;75165;-70
2022/08/29 06:34:22;;;;;;;11.50;10.10;;;;;;;19.59;100.00;99152.33;105053;1271;68731;-71
2022/08/29 06:36:50;;;;;;;11.80;10.60;;;;;;;19.75;100.00;99150.34;105090;1270;74925;-70
2022/08/29 06:39:18;;;;;;;10.30;9.30;;;;;;;19.84;100.00;99152.51;105063;1270;61285;-72
2022/08/29 06:41:44;;;;;;;12.10;10.40;;;;;;;20.04;100.00;99150.25;105108;1270;61352;-72
2022/08/29 06:44:10;;;;;;;10.80;9.90;;;;;;;20.32;100.00;99155.64;105074;1270;61377;-71
2022/08/29 06:46:43;;;;;;;11.30;9.00;;;;;;;20.58;100.00;99157.02;105049;1270;61288;-74
2022/08/29 06:49:11;;;;;;;11.50;9.60;;;;;;;20.70;100.00;99159.40;105134;1270;75005;-71
2022/08/29 06:51:39;;;;;;;10.60;9.70;;;;;;;20.69;100.00;99165.83;105101;1270;61264;-73
2022/08/29 06:54:08;;;;;;;10.90;9.70;;;;;;;20.80;100.00;99165.73;105094;1270;62246;-73
2022/08/29 06:56:35;;;;;;;10.70;9.80;;;;;;;20.96;100.00;99172.13;105118;1270;75489;-71
2022/08/29 06:59:01;;;;;;;12.40;9.60;;;;;;;20.99;100.00;99174.36;105044;1270;70307;-72
2022/08/29 07:01:28;;;;;;;9.50;8.40;;;;;;;20.98;100.00;99178.98;104853;1271;61380;-71
2022/08/29 07:03:56;;;;;;;12.70;10.30;;;;;;;21.04;100.00;99183.52;105016;1271;61400;-72
2022/08/29 07:06:23;;;;;;;10.40;9.40;;;;;;;21.12;100.00;99177.52;105175;1270;61352;-71
2022/08/29 07:08:50;;;;;;;9.80;9.00;;;;;;;21.22;100.00;99177.34;105072;1270;76809;-70
2022/08/29 07:11:18;;;;;;;9.90;8.90;;;;;;;21.38;100.00;99181.85;105114;1270;70475;-71
2022/08/29 07:13:45;;;;;;;9.60;8.70;;;;;;;21.49;100.00;99182.45;105082;1270;73372;-71
2022/08/29 07:16:15;;;;;;;10.10;9.20;;;;;;;21.48;100.00;99190.05;105036;1270;61263;-71
2022/08/29 07:18:45;;;;;;;11.20;9.90;;;;;;;21.42;100.00;99194.08;105128;1270;61849;-70
2022/08/29 07:21:15;;;;;;;10.40;9.50;;;;;;;21.64;100.00;99194.64;105090;1270;75253;-70
2022/08/29 07:23:42;;;;;;;10.00;9.00;;;;;;;21.94;100.00;99198.30;105150;1270;68044;-73
2022/08/29 07:26:15;;;;;;;10.40;9.30;;;;;;;22.26;100.00;99200.52;105100;1270;61295;-71
2022/08/29 07:28:41;;;;;;;9.60;8.70;;;;;;;22.44;100.00;99198.51;105112;1270;61258;-72
2022/08/29 07:31:08;;;;;;;10.40;9.20;;;;;;;22.50;100.00;99195.17;104915;1273;61346;-70
2022/08/29 07:33:35;;;;;;;10.60;8.50;;;;;;;22.61;100.00;99201.73;105034;1270;76359;-71
2022/08/29 07:36:02;;;;;;;9.80;8.40;;;;;;;22.66;100.00;99203.09;104941;1271;69705;-73
2022/08/29 07:38:29;;;;;;;12.20;8.80;;;;;;;22.52;100.00;99199.86;105075;1270;73691;-71
2022/08/29 07:41:13;;;;;;;10.00;9.20;;;;;;;22.29;100.00;99206.23;105105;1270;61378;-71
2022/08/29 07:43:40;;;;;;;9.10;7.60;;;;;;;22.05;100.00;99206.67;105148;1270;61904;-71
2022/08/29 07:46:18;;;;;;;9.80;8.80;;;;;;;21.93;100.00;99205.29;105168;1268;76244;-71
2022/08/29 07:48:45;;;;;;;9.10;8.30;;;;;;;21.73;100.00;99208.30;105138;1270;70373;-71
2022/08/29 07:51:16;;;;;;;9.60;8.60;;;;;;;21.45;100.00;99208.98;105123;1270;73661;-71
2022/08/29 07:53:44;;;;;;;14.00;9.20;;;;;;;21.15;100.00;99206.90;104912;1271;61231;-71
2022/08/29 07:56:13;;;;;;;9.90;8.90;;;;;;;21.12;100.00;99209.66;105156;1270;61269;-72
2022/08/29 07:58:39;;;;;;;23.50;10.60;;;;;;;21.15;100.00;99211.98;105199;1270;76121;-72
2022/08/29 08:01:06;;;;;;;9.20;8.30;;;;;;;21.33;100.00;99215.30;105020;1273;70234;-73
2022/08/29 08:03:33;;;;;;;10.20;9.20;;;;;;;21.40;100.00;99212.64;105108;1271;61293;-72
2022/08/29 08:06:01;;;;;;;10.40;8.90;;;;;;;21.46;100.00;99214.85;105097;1270;61373;-72
2022/08/29 08:08:27;;;;;;;9.70;8.50;;;;;;;21.38;100.00;99216.03;105137;1271;61253;-71
2022/08/29 08:10:53;;;;;;;10.80;9.80;;;;;;;21.61;100.00;99215.05;105095;1270;61193;-72
2022/08/29 08:13:19;;;;;;;10.70;9.60;;;;;;;21.79;100.00;99215.02;105075;1270;61410;-72
2022/08/29 08:15:45;;;;;;;11.00;9.90;;;;;;;21.99;100.00;99213.90;104877;1272;61295;-72
2022/08/29 08:18:11;;;;;;;10.60;9.70;;;;;;;22.16;100.00;99218.48;104895;1270;61395;-72
2022/08/29 08:20:37;;;;;;;10.50;9.50;;;;;;;22.36;100.00;99219.76;105095;1271;61374;-72
2022/08/29 08:23:04;;;;;;;10.40;9.40;;;;;;;22.55;100.00;99218.12;105091;1270;61373;-72
2022/08/29 08:25:30;;;;;;;11.50;10.00;;;;;;;22.60;100.00;99220.50;105104;1271;61326;-72
2022/08/29 08:27:57;;;;;;;11.40;10.30;;;;;;;22.60;100.00;99219.46;105115;1270;61559;-73
2022/08/29 08:30:24;;;;;;;10.90;9.90;;;;;;;22.59;100.00;99213.65;105101;1270;61323;-72
2022/08/29 08:32:50;;;;;;;11.20;10.20;;;;;;;22.72;100.00;99215.48;105084;1270;64734;-73
2022/08/29 08:35:19;;;;;;;10.40;9.10;;;;;;;22.71;100.00;99214.17;104963;1272;61500;-71
2022/08/29 08:37:45;;;;;;;11.70;10.60;;;;;;;22.58;100.00;99217.42;105146;1270;61315;-70
2022/08/29 08:40:22;;;;;;;11.70;10.50;;;;;;;22.58;100.00;99217.77;105085;1270;61272;-71
2022/08/29 08:42:49;;;;;;;9.60;8.70;;;;;;;22.61;100.00;99225.46;104945;1271;61294;-71
2022/08/29 08:45:19;;;;;;;10.20;9.30;;;;;;;22.61;100.00;99220.70;105108;1271;61288;-71
2022/08/29 08:47:55;;;;;;;11.90;10.00;;;;;;;22.73;100.00;99220.57;105052;1274;76630;-71
2022/08/29 08:50:32;;;;;;;10.90;9.80;;;;;;;22.97;100.00;99218.98;105234;1270;69673;-69
2022/08/29 08:53:08;;;;;;;10.50;9.50;;;;;;;23.27;100.00;99221.14;105136;1270;74770;-70
2022/08/29 08:55:45;;;;;;;11.60;9.70;;;;;;;23.57;100.00;99221.72;105088;1271;61278;-71
2022/08/29 08:58:42;;;;;;;9.10;8.20;;;;;;;23.84;100.00;99219.95;105109;1271;62312;-72
2022/08/29 09:01:20;;;;;;;9.30;8.40;;;;;;;24.07;100.00;99217.35;105098;1270;75903;-71
2022/08/29 09:03:55;;;;;;;9.50;8.50;;;;;;;24.02;100.00;99220.11;105141;1271;69936;-71
2022/08/29 09:07:05;;;;;;;10.70;9.10;;;;;;;23.80;100.00;99225.60;105104;1270;74499;-71
2022/08/29 09:09:57;;;;;;;10.10;8.70;;;;;;;23.74;100.00;99222.40;104419;1279;61421;-71
2022/08/29 09:12:43;;;;;;;9.70;8.80;;;;;;;24.03;100.00;99219.11;104518;1279;61366;-72
2022/08/29 09:15:38;;;;;;;11.30;9.90;;;;;;;24.12;100.00;99221.02;104457;1279;76745;-71
2022/08/29 09:18:07;;;;;;;9.50;8.60;;;;;;;23.78;100.00;99220.57;104415;1279;70500;-71
2022/08/29 09:20:37;;;;;;;12.10;10.50;;;;;;;23.53;100.00;99221.01;104510;1279;74468;-71
2022/08/29 09:23:09;;;;;;;;;;;;;;;23.67;100.00;99217.16;104498;1280;61426;-71
2022/08/29 09:25:37;;;;;;;9.50;8.60;;;;;;;23.72;100.00;99220.95;104492;1279;61449;-71
2022/08/29 09:28:08;;;;;;;10.70;9.60;;;;;;;23.38;100.00;99226.33;104382;1279;75477;-71
2022/08/29 09:30:36;;;;;;;11.00;9.40;;;;;;;23.31;100.00;99225.39;104499;1279;70041;-71
2022/08/29 09:33:05;;;;;;;10.60;9.60;;;;;;;23.49;100.00;99218.89;104573;1279;73314;-72
2022/08/29 09:35:44;;;;;;;10.90;9.90;;;;;;;23.62;100.00;99218.97;104450;1279;61376;-71
2022/08/29 09:38:10;;;;;;;12.20;9.20;;;;;;;23.53;100.00;99223.23;104459;1279;61438;-71
2022/08/29 09:40:55;;;;;;;10.20;9.10;;;;;;;23.42;100.00;99219.13;104429;1279;61300;-71
2022/08/29 09:43:34;;;;;;;10.40;9.40;;;;;;;23.64;100.00;99213.55;104444;1279;69760;-72
2022/08/29 09:46:24;;;;;;;9.70;8.80;;;;;;;23.93;100.00;99214.27;104622;1273;73522;-72
2022/08/29 09:49:11;;;;;;;10.60;8.70;;;;;;;24.25;100.00;99212.06;105165;1270;61461;-73
2022/08/29 09:51:41;;;;;;;12.20;9.20;;;;;;;24.58;100.00;99210.33;105144;1270;61262;-72
2022/08/29 09:54:25;;;;;;;8.70;7.90;;;;;;;24.74;100.00;99207.65;105101;1271;73925;-72
2022/08/29 09:57:11;;;;;;;8.70;7.80;;;;;;;24.53;100.00;99211.10;105864;1270;69554;-71
2022/08/29 10:00:12;;;;;;;8.40;7.60;;;;;;;24.27;100.00;99210.67;105059;1268;73465;-71
2022/08/29 10:02:50;;;;;;;8.90;8.10;;;;;;;24.08;100.00;99207.98;105070;1271;61265;-71
2022/08/29 10:05:28;;;;;;;9.40;8.40;;;;;;;23.93;100.00;99212.84;105132;1270;61635;-70
2022/08/29 10:07:56;;;;;;;9.10;8.20;;;;;;;23.95;100.00;99206.46;105106;1271;76175;-70
2022/08/29 10:10:27;;;;;;;8.70;7.60;;;;;;;24.18;100.00;99208.39;105139;1270;70350;-70
2022/08/29 10:13:21;;;;;;;8.60;7.60;;;;;;;24.34;100.00;99214.30;105160;1270;73987;-70
2022/08/29 10:16:08;;;;;;;8.00;7.20;;;;;;;24.17;100.00;99200.04;105120;1271;61274;-71
2022/08/29 10:18:47;;;;;;;7.70;6.90;;;;;;;24.17;100.00;99204.17;105162;1270;62059;-70
2022/08/29 10:21:23;;;;;;;6.20;5.60;;;;;;;24.39;100.00;99205.90;104992;1271;76618;-69
2022/08/29 10:24:07;;;;;;;7.10;6.50;;;;;;;24.68;100.00;99205.30;105216;1270;69507;-68
2022/08/29 10:26:53;;;;;;;7.90;6.40;;;;;;;24.85;100.00;99199.13;105047;1270;73531;-71
2022/08/29 10:29:51;;;;;;;7.30;6.70;;;;;;;24.91;100.00;99201.09;104930;1270;61236;-71
2022/08/29 10:32:38;;;;;;;8.50;6.30;;;;;;;24.56;100.00;99200.95;105025;1270;61468;-70
2022/08/29 10:35:07;;;;;;;6.40;5.60;;;;;;;24.42;100.00;99197.08;105126;1271;75181;-70
2022/08/29 10:38:08;;;;;;;7.60;6.60;;;;;;;24.56;100.00;99197.50;105130;1270;70219;-71
2022/08/29 10:40:44;;;;;;;6.50;6.00;;;;;;;24.66;100.00;99200.08;104488;1278;74452;-70
2022/08/29 10:43:38;;;;;;;7.00;5.60;;;;;;;24.50;100.00;99202.50;104586;1278;61487;-69
2022/08/29 10:46:23;;;;;;;7.60;5.50;;;;;;;24.40;100.00;99200.94;104462;1278;61330;-70
2022/08/29 10:49:06;;;;;;;5.70;5.00;;;;;;;24.50;100.00;99206.65;104485;1277;75390;-70
2022/08/29 10:51:53;;;;;;;6.50;4.90;;;;;;;24.63;100.00;99204.23;104446;1278;68226;-70
2022/08/29 10:54:22;;;;;;;6.20;5.30;;;;;;;24.80;100.00;99205.79;104462;1278;73512;-70
2022/08/29 10:56:50;;;;;;;7.60;6.30;;;;;;;24.93;100.00;99204.64;104458;1278;61396;-71
2022/08/29 11:00:01;;;;;;;8.60;5.90;;;;;;;24.98;100.00;99204.58;104520;1278;61418;-71
2022/08/29 11:02:53;;;;;;;8.90;5.90;;;;;;;25.10;100.00;99204.02;104466;1277;75110;-71
2022/08/29 11:05:25;;;;;;;5.60;5.00;;;;;;;25.22;100.00;99203.38;103849;1285;69354;-72
2022/08/29 11:08:00;;;;;;;5.00;4.60;;;;;;;25.23;100.00;99200.27;103924;1286;73401;-71
2022/08/29 11:10:37;;;;;;;5.50;4.40;;;;;;;24.94;100.00;99200.58;103881;1285;61325;-71
2022/08/29 11:13:15;;;;;;;5.80;4.70;;;;;;;24.41;100.00;99196.81;104008;1285;62241;-69
2022/08/29 11:15:46;;;;;;;6.30;5.00;;;;;;;24.10;100.00;99197.16;103976;1287;76407;-70
2022/08/29 11:18:48;;;;;;;5.60;5.00;;;;;;;24.01;100.00;99197.02;104198;1281;68762;-71
2022/08/29 11:21:23;;;;;;;5.10;4.60;;;;;;;24.19;100.00;99190.11;104449;1281;74395;-70
2022/08/29 11:23:49;;;;;;;5.70;4.70;;;;;;;24.30;100.00;99185.45;104464;1278;61796;-71